Time;durP1;ratioP1;P1;durP2;ratioP2;P2;SDS_P1;SDS_P2;PMS_P1;PMS_P2;Temp;Humidity;BMP_temperature;BMP_pressure;BME280_temperature;BME280_humidity;BME280_pressure;Samples;Min_cycle;Max_cycle;Signal;HPM_P1;HPM_P2
2022/04/13 00:06:40;;;;;;;23.77;9.02;;;;;;;15.76;49.47;101194.19;5192025;28;20794;-43
2022/04/13 00:09:13;;;;;;;22.05;9.57;;;;;;;15.66;49.52;101189.06;5191164;28;20429;-43
2022/04/13 00:11:45;;;;;;;24.83;9.38;;;;;;;15.80;49.69;101205.34;5187418;28;20482;-42
2022/04/13 00:14:22;;;;;;;23.77;9.52;;;;;;;15.80;49.70;101202.69;5191391;28;20986;-42
2022/04/13 00:16:55;;;;;;;21.37;8.90;;;;;;;15.81;49.80;101204.34;5187374;28;20513;-43
2022/04/13 00:19:27;;;;;;;24.48;9.95;;;;;;;15.77;50.02;101200.38;5199742;28;20424;-42
2022/04/13 00:22:01;;;;;;;24.92;9.60;;;;;;;15.80;49.92;101208.84;5198913;28;20520;-42
2022/04/13 00:24:36;;;;;;;18.20;8.38;;;;;;;15.64;50.06;101196.41;5194715;28;20951;-42
2022/04/13 00:27:08;;;;;;;21.25;8.57;;;;;;;15.82;50.08;101208.66;5191882;28;20854;-41
2022/04/13 00:29:40;;;;;;;18.30;9.05;;;;;;;15.70;50.26;101183.41;5191719;28;20411;-42
2022/04/13 00:32:13;;;;;;;19.58;8.68;;;;;;;15.86;50.13;101209.97;5191339;28;20785;-44
2022/04/13 00:34:45;;;;;;;20.90;8.50;;;;;;;15.73;50.28;101186.56;5193728;28;20416;-42
2022/04/13 00:37:19;;;;;;;17.30;8.10;;;;;;;15.75;50.55;101205.03;5200108;28;20857;-42
2022/04/13 00:39:51;;;;;;;26.50;8.90;;;;;;;15.62;50.38;101193.09;5190816;28;20415;-40
2022/04/13 00:42:28;;;;;;;21.38;8.55;;;;;;;15.83;50.51;101213.81;5189175;28;20776;-40
2022/04/13 00:45:00;;;;;;;19.63;7.93;;;;;;;15.82;50.59;101214.81;5208704;28;20432;-41
2022/04/13 00:47:35;;;;;;;20.30;8.32;;;;;;;15.79;50.67;101209.00;5209910;28;20873;-42
2022/04/13 00:50:09;;;;;;;14.00;7.65;;;;;;;15.85;50.78;101224.28;5208763;28;20495;-42
2022/04/13 00:52:47;;;;;;;18.45;8.13;;;;;;;15.88;50.69;101218.59;5190592;28;20779;-42
2022/04/13 00:55:24;;;;;;;17.90;7.65;;;;;;;15.90;50.67;101216.59;5209239;28;20417;-42
2022/04/13 00:57:59;;;;;;;15.35;8.18;;;;;;;15.88;50.78;101219.44;5192602;28;20433;-42
2022/04/13 01:00:34;;;;;;;16.02;7.47;;;;;;;15.79;50.71;101204.50;5206680;28;20943;-41
2022/04/13 01:03:07;;;;;;;23.93;8.03;;;;;;;15.93;50.88;101216.25;5208179;28;21055;-42
2022/04/13 01:05:40;;;;;;;22.15;7.22;;;;;;;15.85;51.04;101206.47;5209571;28;20424;-44
2022/04/13 01:08:17;;;;;;;17.00;7.32;;;;;;;15.94;50.97;101233.88;5194651;28;20419;-41
2022/04/13 01:10:51;;;;;;;26.40;7.40;;;;;;;15.92;51.00;101225.25;5201542;28;20901;-41
2022/04/13 01:13:23;;;;;;;22.80;7.10;;;;;;;15.96;51.09;101231.88;5188700;28;20478;-44
2022/04/13 01:15:56;;;;;;;19.13;7.07;;;;;;;15.95;51.05;101227.56;5187442;28;20407;-43
2022/04/13 01:18:28;;;;;;;16.92;6.57;;;;;;;15.94;51.15;101228.56;5187639;28;20468;-41
2022/04/13 01:21:01;;;;;;;18.17;6.28;;;;;;;15.90;51.38;101232.59;5208084;28;20534;-40
2022/04/13 01:23:35;;;;;;;14.33;5.90;;;;;;;15.70;51.44;101199.41;5194365;28;20491;-42
2022/04/13 01:26:11;;;;;;;15.13;5.60;;;;;;;15.86;51.48;101228.63;5185873;28;20451;-41
2022/04/13 01:28:43;;;;;;;14.02;5.35;;;;;;;15.92;51.53;101238.59;5189607;28;20413;-43
2022/04/13 01:31:15;;;;;;;16.40;5.32;;;;;;;15.93;51.51;101242.91;5198852;28;20414;-41
2022/04/13 01:33:50;;;;;;;17.02;5.60;;;;;;;15.87;51.87;101230.28;5208008;28;20428;-43
2022/04/13 01:36:22;;;;;;;12.93;5.18;;;;;;;15.90;51.80;101243.25;5207045;28;20761;-42
2022/04/13 01:38:56;;;;;;;18.07;5.50;;;;;;;15.63;51.98;101205.38;5206408;28;20512;-42
2022/04/13 01:41:29;;;;;;;13.02;5.25;;;;;;;15.81;51.96;101222.97;5209460;28;20504;-40
2022/04/13 01:44:01;;;;;;;12.13;4.53;;;;;;;15.96;52.11;101245.22;5205985;28;20416;-41
2022/04/13 01:46:34;;;;;;;13.23;5.88;;;;;;;15.97;52.11;101246.84;5199720;28;20477;-42
2022/04/13 01:49:06;;;;;;;15.07;5.07;;;;;;;15.96;52.27;101247.88;5195915;28;20898;-42
2022/04/13 01:51:39;;;;;;;18.53;5.53;;;;;;;15.90;52.27;101243.25;5194146;28;20429;-41
2022/04/13 01:54:12;;;;;;;10.93;5.47;;;;;;;15.92;52.43;101246.56;5202646;28;20820;-41
2022/04/13 01:56:45;;;;;;;14.63;5.20;;;;;;;15.85;52.47;101232.28;5194661;28;20495;-42
2022/04/13 01:59:17;;;;;;;13.45;5.80;;;;;;;15.94;52.63;101244.53;5209861;28;20443;-42
2022/04/13 02:01:50;;;;;;;14.10;5.13;;;;;;;15.87;52.72;101233.75;5195591;28;20445;-41
2022/04/13 02:04:25;;;;;;;18.83;6.43;;;;;;;15.99;52.69;101252.03;5193706;28;20921;-43
2022/04/13 02:06:58;;;;;;;16.42;6.15;;;;;;;15.97;52.83;101243.38;5193972;28;20900;-42
2022/04/13 02:09:32;;;;;;;14.38;6.07;;;;;;;15.97;52.85;101249.53;5195796;28;20425;-42
2022/04/13 02:12:05;;;;;;;17.45;5.93;;;;;;;15.91;52.92;101239.56;5197615;28;20421;-42
2022/04/13 02:14:38;;;;;;;14.90;6.68;;;;;;;15.93;53.06;101245.56;5195943;28;20434;-42
2022/04/13 02:17:14;;;;;;;18.93;6.77;;;;;;;15.97;53.08;101257.50;5194145;28;20571;-41
2022/04/13 02:19:47;;;;;;;14.93;6.30;;;;;;;15.95;53.04;101256.88;5194693;28;20711;-42
2022/04/13 02:22:20;;;;;;;18.10;5.95;;;;;;;15.93;53.25;101264.22;5198023;28;20419;-41
2022/04/13 02:24:53;;;;;;;16.15;7.05;;;;;;;15.87;53.20;101259.56;5191699;28;20410;-46
2022/04/13 02:27:26;;;;;;;19.55;6.93;;;;;;;15.90;53.27;101272.53;5185325;28;20994;-45
2022/04/13 02:29:58;;;;;;;11.33;5.20;;;;;;;15.88;53.40;101271.88;5200856;28;20490;-41
2022/04/13 02:32:31;;;;;;;14.37;5.40;;;;;;;15.86;53.53;101273.91;5193543;28;20839;-50
2022/04/13 02:35:04;;;;;;;15.30;6.47;;;;;;;15.83;53.68;101268.94;5194214;28;20470;-41
2022/04/13 02:37:36;;;;;;;11.65;5.53;;;;;;;15.80;53.69;101261.28;5189861;28;20457;-41
2022/04/13 02:40:12;;;;;;;16.23;5.60;;;;;;;15.80;53.79;101259.44;5195571;28;20545;-40
2022/04/13 02:42:44;;;;;;;12.18;5.57;;;;;;;15.75;53.73;101252.97;5197836;28;20872;-41
2022/04/13 02:45:17;;;;;;;11.00;5.50;;;;;;;15.76;53.85;101252.78;5201905;28;20397;-42
2022/04/13 02:47:49;;;;;;;12.05;4.90;;;;;;;15.78;53.88;101265.94;5197862;28;20553;-41
2022/04/13 02:50:23;;;;;;;14.60;6.22;;;;;;;15.77;53.94;101270.44;5198404;28;20931;-46
2022/04/13 02:52:56;;;;;;;15.80;5.63;;;;;;;15.62;54.09;101246.34;5190799;28;20506;-42
2022/04/13 02:55:30;;;;;;;13.43;5.28;;;;;;;15.76;54.04;101259.94;5195884;28;20446;-41
2022/04/13 02:58:05;;;;;;;17.67;6.33;;;;;;;15.69;54.00;101262.47;5193791;28;20482;-42
2022/04/13 03:00:38;;;;;;;14.55;5.28;;;;;;;15.65;54.19;101267.28;5191319;28;20500;-41
2022/04/13 03:03:11;;;;;;;12.27;5.28;;;;;;;15.61;54.27;101259.84;5199002;28;20434;-41
2022/04/13 03:05:43;;;;;;;13.80;5.10;;;;;;;15.68;54.32;101282.13;5188836;28;20422;-43
2022/04/13 03:08:16;;;;;;;7.30;4.97;;;;;;;15.60;54.46;101277.63;5193956;28;20458;-41
2022/04/13 03:10:52;;;;;;;13.30;4.53;;;;;;;15.63;54.25;101285.25;5189865;28;20497;-42
2022/04/13 03:13:24;;;;;;;17.02;5.15;;;;;;;15.44;54.61;101261.72;5187124;28;20442;-40
2022/04/13 03:15:57;;;;;;;15.65;5.32;;;;;;;15.58;54.67;101286.81;5198030;28;20431;-51
2022/04/13 03:18:32;;;;;;;12.40;5.72;;;;;;;15.52;54.60;101283.00;5194087;28;20441;-41
2022/04/13 03:21:04;;;;;;;16.42;5.78;;;;;;;15.54;54.72;101288.94;5198483;28;20410;-41
2022/04/13 03:23:36;;;;;;;16.70;6.50;;;;;;;15.53;54.72;101294.47;5192296;28;20876;-42
2022/04/13 03:26:13;;;;;;;13.05;6.55;;;;;;;15.49;54.77;101299.31;5188788;28;20405;-42
2022/04/13 03:28:45;;;;;;;16.25;6.95;;;;;;;15.42;54.80;101292.97;5211921;28;20411;-41
2022/04/13 03:31:18;;;;;;;14.95;7.65;;;;;;;15.44;54.87;101291.00;5195412;28;20499;-41
2022/04/13 03:33:50;;;;;;;17.77;7.90;;;;;;;15.41;54.85;101289.50;5200365;28;20408;-42
2022/04/13 03:36:23;;;;;;;15.97;7.77;;;;;;;15.40;54.99;101295.81;5189802;28;20409;-40
2022/04/13 03:38:56;;;;;;;18.98;7.63;;;;;;;15.39;55.00;101299.50;5191494;28;20500;-40
2022/04/13 03:41:30;;;;;;;17.55;8.07;;;;;;;15.40;55.06;101310.97;5187779;28;20419;-43
2022/04/13 03:44:02;;;;;;;18.08;8.35;;;;;;;15.35;55.12;101314.13;5194780;28;20427;-42
2022/04/13 03:46:35;;;;;;;18.20;8.15;;;;;;;15.26;55.03;101311.66;5192654;28;20506;-41
2022/04/13 03:49:08;;;;;;;21.08;8.73;;;;;;;15.34;55.21;101322.28;5193846;28;20921;-41
2022/04/13 03:51:41;;;;;;;19.33;8.85;;;;;;;15.34;55.33;101316.97;5185385;28;20430;-45
2022/04/13 03:54:13;;;;;;;16.17;8.00;;;;;;;15.30;55.23;101320.94;5193317;28;20429;-40
2022/04/13 03:56:47;;;;;;;16.63;7.78;;;;;;;15.31;55.42;101322.63;5168153;28;20572;-41
2022/04/13 03:59:22;;;;;;;15.02;7.97;;;;;;;15.32;55.47;101322.44;5186024;28;20500;-41
2022/04/13 04:01:54;;;;;;;18.48;7.40;;;;;;;15.33;55.39;101326.78;5196479;28;21221;-41
2022/04/13 04:04:27;;;;;;;18.30;8.38;;;;;;;15.33;55.44;101326.78;5188275;28;20411;-41
2022/04/13 04:06:59;;;;;;;17.83;8.87;;;;;;;15.17;55.58;101310.81;5190842;28;20445;-43
2022/04/13 04:09:31;;;;;;;18.85;8.70;;;;;;;15.25;55.70;101337.44;5189677;28;20428;-40
2022/04/13 04:12:09;;;;;;;22.63;8.60;;;;;;;15.06;55.85;101304.03;5190394;28;21644;-41
2022/04/13 04:14:41;;;;;;;17.40;8.68;;;;;;;15.16;55.85;101325.13;5188228;28;20417;-42
2022/04/13 04:17:14;;;;;;;16.55;8.20;;;;;;;15.10;55.79;101320.50;5190417;28;21152;-42
2022/04/13 04:19:46;;;;;;;15.48;7.75;;;;;;;15.21;55.92;101350.25;5197400;28;20479;-42
2022/04/13 04:22:18;;;;;;;20.92;9.20;;;;;;;15.18;55.85;101333.78;5186735;28;20417;-44
2022/04/13 04:24:51;;;;;;;20.55;9.35;;;;;;;15.16;55.87;101335.78;5190494;28;20490;-46
2022/04/13 04:27:25;;;;;;;18.38;9.13;;;;;;;15.15;56.04;101345.59;5189191;28;20507;-43
2022/04/13 04:29:58;;;;;;;18.85;8.80;;;;;;;14.80;55.92;101282.91;5199090;28;20762;-40
2022/04/13 04:32:30;;;;;;;29.88;10.23;;;;;;;15.18;56.03;101349.75;5194882;28;20498;-40
2022/04/13 04:35:04;;;;;;;28.70;10.20;;;;;;;15.06;56.21;101341.28;5206356;28;20499;-41
2022/04/13 04:37:37;;;;;;;25.77;9.43;;;;;;;15.09;56.28;101351.59;5200530;28;20468;-41
2022/04/13 04:40:10;;;;;;;21.58;10.68;;;;;;;15.12;56.30;101364.56;5205947;28;20846;-41
2022/04/13 04:42:48;;;;;;;30.00;11.33;;;;;;;15.03;56.19;101356.75;5191111;28;20442;-42
2022/04/13 04:45:21;;;;;;;20.27;10.50;;;;;;;15.08;56.45;101363.22;5194443;28;20506;-41
2022/04/13 04:47:56;;;;;;;21.63;11.18;;;;;;;15.03;56.32;101368.22;5181285;28;20499;-42
2022/04/13 04:50:28;;;;;;;20.55;10.05;;;;;;;15.02;56.60;101363.91;5185723;28;20424;-44
2022/04/13 04:53:01;;;;;;;17.83;10.60;;;;;;;15.07;56.52;101380.16;5187118;28;20438;-41
2022/04/13 04:55:34;;;;;;;20.70;11.73;;;;;;;15.02;56.41;101366.56;5182295;28;20958;-42
2022/04/13 04:58:09;;;;;;;20.63;11.13;;;;;;;15.04;56.62;101412.41;5187199;28;20475;-44
2022/04/13 05:00:41;;;;;;;28.25;11.38;;;;;;;15.09;56.61;101399.47;5197102;28;20862;-40
2022/04/13 05:03:14;;;;;;;21.83;10.43;;;;;;;15.01;56.56;101391.47;5199294;28;20978;-42
2022/04/13 05:05:48;;;;;;;20.30;10.93;;;;;;;15.01;56.76;101396.78;5207732;28;20409;-41
2022/04/13 05:08:20;;;;;;;23.63;11.02;;;;;;;15.01;56.85;101402.13;5207455;28;20471;-41
2022/04/13 05:10:53;;;;;;;19.10;10.68;;;;;;;14.99;56.91;101406.78;5202685;28;20893;-41
2022/04/13 05:13:27;;;;;;;23.63;11.73;;;;;;;14.98;56.89;101402.44;5186458;28;20430;-41
2022/04/13 05:15:59;;;;;;;25.02;11.55;;;;;;;14.99;56.96;101406.78;5186511;28;20457;-41
2022/04/13 05:18:32;;;;;;;27.13;11.80;;;;;;;14.97;56.93;101414.91;5200132;28;20500;-41
2022/04/13 05:21:06;;;;;;;24.85;10.88;;;;;;;14.85;57.09;101405.59;5202369;28;20508;-42
2022/04/13 05:23:41;;;;;;;23.85;12.15;;;;;;;14.96;57.34;101420.41;5191083;28;20771;-40
2022/04/13 05:26:18;;;;;;;23.70;10.45;;;;;;;14.95;57.09;101414.22;5194588;28;20405;-42
2022/04/13 05:28:52;;;;;;;22.70;11.15;;;;;;;14.69;57.08;101379.81;5187134;28;20522;-41
2022/04/13 05:31:25;;;;;;;23.25;11.40;;;;;;;14.74;57.26;101385.47;5185202;28;20749;-41
2022/04/13 05:33:57;;;;;;;24.70;11.43;;;;;;;14.92;57.15;101416.41;5183410;28;20403;-40
2022/04/13 05:36:30;;;;;;;26.15;11.55;;;;;;;14.57;57.25;101361.69;5190164;28;20446;-42
2022/04/13 05:39:03;;;;;;;29.77;12.70;;;;;;;15.04;57.29;101432.88;5186690;28;20818;-41
2022/04/13 05:41:35;;;;;;;23.88;11.70;;;;;;;15.07;57.27;101448.50;5187911;28;20916;-41
2022/04/13 05:44:09;;;;;;;24.05;12.40;;;;;;;15.11;57.19;101447.19;5194797;28;20429;-39
2022/04/13 05:46:42;;;;;;;26.25;11.32;;;;;;;15.16;57.12;101448.34;5190589;28;20443;-41
2022/04/13 05:49:15;;;;;;;22.65;10.25;;;;;;;15.21;57.15;101451.34;5186210;28;20422;-40
2022/04/13 05:51:48;;;;;;;25.57;11.20;;;;;;;15.27;57.18;101451.69;5193736;28;20491;-40
2022/04/13 05:54:20;;;;;;;18.70;10.07;;;;;;;15.11;57.04;101425.88;5194366;28;20457;-40
2022/04/13 05:56:53;;;;;;;24.95;10.93;;;;;;;15.38;57.05;101468.16;5187398;28;20827;-40
2022/04/13 05:59:30;;;;;;;22.23;10.85;;;;;;;15.48;57.10;101462.66;5187486;28;20419;-40
2022/04/13 06:02:03;;;;;;;19.37;10.30;;;;;;;15.40;56.97;101450.19;5187096;28;20787;-45
2022/04/13 06:04:35;;;;;;;21.88;10.48;;;;;;;15.60;57.12;101471.97;5190205;28;20916;-40
2022/04/13 06:07:10;;;;;;;25.73;10.63;;;;;;;15.61;57.04;101462.19;5190473;28;20862;-40
2022/04/13 06:09:45;;;;;;;19.45;10.30;;;;;;;15.67;57.08;101461.53;5186694;28;20465;-43
2022/04/13 06:12:23;;;;;;;21.67;10.47;;;;;;;15.83;56.96;101476.66;5207559;28;20912;-42
2022/04/13 06:15:04;;;;;;;21.55;10.88;;;;;;;16.14;56.77;101479.44;5196805;28;20413;-45
2022/04/13 06:17:37;;;;;;;22.58;9.80;;;;;;;16.60;56.21;101480.44;5200373;28;20838;-43
2022/04/13 06:20:14;;;;;;;25.70;11.23;;;;;;;17.09;55.71;101484.69;5196385;28;21018;-43
2022/04/13 06:22:46;;;;;;;17.30;9.50;;;;;;;17.22;55.56;101484.94;5191303;28;20950;-43
2022/04/13 06:25:21;;;;;;;20.63;9.40;;;;;;;17.19;55.45;101489.81;5207751;28;20963;-43
2022/04/13 06:27:53;;;;;;;22.00;10.45;;;;;;;17.12;55.43;101486.19;5194854;28;20418;-44
2022/04/13 06:30:27;;;;;;;21.92;10.48;;;;;;;17.14;55.28;101492.19;5189507;28;20798;-41
2022/04/13 06:33:00;;;;;;;27.67;9.95;;;;;;;17.21;55.19;101499.28;5191891;28;20503;-44
2022/04/13 06:35:34;;;;;;;22.00;9.20;;;;;;;17.29;55.14;101511.75;5189677;28;20488;-43
2022/04/13 06:38:06;;;;;;;21.75;10.57;;;;;;;17.41;54.85;101509.50;5203555;28;20504;-43
2022/04/13 06:40:38;;;;;;;21.02;10.32;;;;;;;17.62;54.72;101522.19;5204880;28;20418;-42
2022/04/13 06:43:11;;;;;;;21.83;9.48;;;;;;;17.68;54.42;101521.47;5197476;28;20421;-43
2022/04/13 06:45:45;;;;;;;19.02;8.98;;;;;;;17.92;54.32;101520.47;5198886;28;20425;-45
2022/04/13 06:48:17;;;;;;;23.50;8.95;;;;;;;18.36;53.41;101472.34;5202539;28;20773;-44
2022/04/13 06:50:50;;;;;;;20.02;7.65;;;;;;;19.24;52.70;101510.69;5186770;28;20426;-45
2022/04/13 06:53:22;;;;;;;16.65;7.78;;;;;;;20.04;52.04;101516.78;5200906;28;20808;-43
2022/04/13 06:55:55;;;;;;;19.23;7.32;;;;;;;20.69;50.98;101523.56;5193581;28;20879;-44
2022/04/13 06:58:27;;;;;;;22.38;7.85;;;;;;;20.61;50.84;101526.41;5188398;28;20792;-44
2022/04/13 07:01:01;;;;;;;18.60;7.07;;;;;;;20.37;50.91;101530.38;5199377;28;20498;-45
2022/04/13 07:03:34;;;;;;;19.08;7.93;;;;;;;20.13;51.02;101523.66;5194213;28;20461;-45
2022/04/13 07:06:07;;;;;;;20.98;7.50;;;;;;;19.91;51.13;101535.41;5191067;28;20430;-45
2022/04/13 07:08:39;;;;;;;16.98;6.63;;;;;;;19.12;51.51;101478.22;5193965;28;20438;-43
2022/04/13 07:11:12;;;;;;;19.25;6.55;;;;;;;19.35;51.40;101549.50;5196709;28;20443;-44
2022/04/13 07:13:44;;;;;;;19.40;7.22;;;;;;;19.19;51.41;101550.59;5193376;28;20425;-44
2022/04/13 07:16:18;;;;;;;21.88;7.28;;;;;;;19.14;51.41;101561.06;5192925;28;20458;-44
2022/04/13 07:18:51;;;;;;;20.95;6.78;;;;;;;19.15;51.35;101535.94;5193427;28;20440;-44
2022/04/13 07:21:24;;;;;;;14.65;6.22;;;;;;;19.34;51.18;101556.72;5201722;28;20771;-41
2022/04/13 07:23:57;;;;;;;16.33;6.30;;;;;;;19.31;51.14;101562.47;5194979;28;20543;-44
2022/04/13 07:26:30;;;;;;;20.85;6.70;;;;;;;19.31;50.86;101567.81;5204624;28;20420;-43
2022/04/13 07:29:02;;;;;;;22.48;6.65;;;;;;;19.23;50.79;101570.63;5193144;28;20517;-45
2022/04/13 07:31:36;;;;;;;22.17;7.47;;;;;;;19.31;50.70;101567.00;5194753;28;20435;-44
2022/04/13 07:34:08;;;;;;;14.50;5.72;;;;;;;19.62;50.44;101580.09;5193601;28;20421;-43
2022/04/13 07:36:40;;;;;;;16.05;5.80;;;;;;;19.86;49.98;101575.41;5192954;28;20514;-42
2022/04/13 07:39:13;;;;;;;21.95;6.38;;;;;;;20.16;49.74;101571.53;5189862;28;21002;-50
2022/04/13 07:41:45;;;;;;;18.48;6.22;;;;;;;20.58;49.14;101587.69;5192729;28;20489;-46
2022/04/13 07:44:18;;;;;;;19.58;5.97;;;;;;;21.02;48.62;101587.28;5190544;28;20446;-47
2022/04/13 07:46:52;;;;;;;17.65;5.60;;;;;;;21.13;48.56;101584.03;5193431;28;20900;-44
2022/04/13 07:49:25;;;;;;;29.35;5.70;;;;;;;20.90;48.46;101572.78;5202180;28;20483;-49
2022/04/13 07:52:00;;;;;;;17.55;5.65;;;;;;;20.89;48.46;101581.88;5193326;28;20926;-44
2022/04/13 07:54:32;;;;;;;14.82;4.88;;;;;;;20.64;48.50;101590.41;5190538;28;20532;-44
2022/04/13 07:57:05;;;;;;;19.42;6.32;;;;;;;20.34;48.78;101595.16;5191583;28;20427;-46
2022/04/13 07:59:38;;;;;;;20.42;6.30;;;;;;;20.00;48.78;101580.66;5191938;28;20908;-44
2022/04/13 08:02:11;;;;;;;16.08;5.70;;;;;;;19.85;49.01;101600.53;5201361;28;20924;-44
2022/04/13 08:04:44;;;;;;;17.60;6.73;;;;;;;19.67;49.29;101607.19;5198396;28;20834;-47
2022/04/13 08:07:17;;;;;;;19.02;6.15;;;;;;;19.53;49.31;101613.38;5197176;28;20836;-45
2022/04/13 08:09:49;;;;;;;13.10;5.13;;;;;;;19.59;49.17;101618.81;5203805;28;20493;-46
2022/04/13 08:12:22;;;;;;;17.45;5.32;;;;;;;19.46;49.40;101601.78;5196611;28;20511;-44
2022/04/13 08:14:54;;;;;;;13.95;5.15;;;;;;;19.54;49.13;101615.88;5196577;28;20415;-46
2022/04/13 08:17:28;;;;;;;12.80;5.03;;;;;;;19.64;48.96;101614.75;5184849;28;20970;-45
2022/04/13 08:20:01;;;;;;;17.17;5.30;;;;;;;19.69;48.84;101634.59;5195890;28;20413;-44
2022/04/13 08:22:33;;;;;;;21.20;5.38;;;;;;;19.70;48.71;101641.66;5198529;28;20481;-46
2022/04/13 08:25:06;;;;;;;16.45;4.97;;;;;;;19.67;48.56;101636.66;5197555;28;20413;-43
2022/04/13 08:27:39;;;;;;;13.07;4.93;;;;;;;19.55;48.72;101632.78;5190113;28;20429;-43
2022/04/13 08:30:13;;;;;;;16.02;5.82;;;;;;;19.52;48.63;101638.53;5192723;28;20794;-45
2022/04/13 08:32:47;;;;;;;16.98;4.63;;;;;;;19.46;48.71;101640.09;5197045;28;20889;-43
2022/04/13 08:35:21;;;;;;;20.77;5.40;;;;;;;19.36;48.66;101639.59;5195238;28;20407;-43
2022/04/13 08:37:53;;;;;;;15.23;4.77;;;;;;;19.25;48.97;101646.25;5191287;28;20510;-43
2022/04/13 08:40:26;;;;;;;16.17;5.13;;;;;;;19.12;49.16;101654.94;5188688;28;20430;-45
2022/04/13 08:43:07;;;;;;;19.10;6.03;;;;;;;19.06;49.20;101644.16;5193493;28;20951;-43
2022/04/13 08:45:48;;;;;;;17.38;4.60;;;;;;;19.02;48.99;101643.69;5199245;28;20701;-44
2022/04/13 08:48:24;;;;;;;15.35;4.60;;;;;;;19.04;48.97;101640.81;5191101;28;20423;-43
2022/04/13 08:51:01;;;;;;;14.65;5.10;;;;;;;19.06;49.13;101646.81;5194249;28;20420;-45
2022/04/13 08:53:36;;;;;;;12.45;4.57;;;;;;;19.05;49.10;101642.50;5186681;28;20508;-47
2022/04/13 08:56:12;;;;;;;19.30;5.50;;;;;;;18.99;48.94;101638.72;5192594;28;20419;-44
2022/04/13 08:58:55;;;;;;;19.25;5.00;;;;;;;19.03;48.97;101649.88;5190846;28;20425;-48
2022/04/13 09:01:37;;;;;;;15.48;4.75;;;;;;;18.98;48.99;101661.13;5184485;28;20411;-46
2022/04/13 09:04:13;;;;;;;16.17;4.90;;;;;;;18.94;49.08;101661.69;5188197;28;20466;-44
2022/04/13 09:06:46;;;;;;;18.55;5.55;;;;;;;18.97;49.00;101655.97;5197049;28;20692;-45
2022/04/13 09:09:30;;;;;;;16.70;5.13;;;;;;;18.97;49.02;101655.97;5193189;28;20882;-46
2022/04/13 09:12:05;;;;;;;19.98;6.03;;;;;;;19.05;49.03;101663.91;5187643;28;20972;-46
2022/04/13 09:14:40;;;;;;;19.07;5.27;;;;;;;19.02;49.04;101658.94;5197898;28;20658;-48
2022/04/13 09:17:13;;;;;;;14.55;4.53;;;;;;;18.89;49.28;101648.84;5188022;28;20926;-47
2022/04/13 09:19:47;;;;;;;21.17;5.57;;;;;;;18.84;49.27;101661.97;5193530;28;22980;-43
2022/04/13 09:22:22;;;;;;;20.80;5.67;;;;;;;18.96;49.17;101667.69;5196888;28;20422;-48
2022/04/13 09:24:55;;;;;;;14.73;4.93;;;;;;;18.91;49.06;101646.00;5187385;28;20418;-46
2022/04/13 09:27:29;;;;;;;12.10;4.45;;;;;;;18.92;48.94;101658.34;5192308;28;20407;-44
2022/04/13 09:30:03;;;;;;;16.48;5.28;;;;;;;19.13;49.01;101669.16;5194670;28;20411;-46
2022/04/13 09:32:36;;;;;;;15.35;5.28;;;;;;;19.18;49.02;101690.88;5192874;28;20433;-47
2022/04/13 09:35:11;;;;;;;13.15;4.75;;;;;;;19.09;48.94;101691.97;5187516;28;20621;-51
2022/04/13 09:37:44;;;;;;;18.73;5.30;;;;;;;19.07;49.05;101691.31;5193460;28;20492;-48
2022/04/13 09:40:34;;;;;;;16.57;5.00;;;;;;;18.99;49.07;101688.75;5193423;28;20548;-45
2022/04/13 09:43:11;;;;;;;20.13;6.65;;;;;;;18.96;49.01;101694.47;5189246;28;20430;-45
2022/04/13 09:45:45;;;;;;;19.45;5.43;;;;;;;18.99;49.04;101710.16;5189873;28;20513;-44
2022/04/13 09:48:19;;;;;;;20.30;6.13;;;;;;;18.99;48.96;101696.78;5188138;28;20941;-46
2022/04/13 09:50:57;;;;;;;19.58;5.00;;;;;;;18.98;48.91;101690.56;5189641;28;20620;-44
2022/04/13 09:53:29;;;;;;;13.90;4.95;;;;;;;19.08;49.08;101714.41;5195032;28;20478;-43
2022/04/13 09:56:02;;;;;;;25.55;5.90;;;;;;;19.05;49.11;101706.75;5198300;28;20512;-42
2022/04/13 09:58:34;;;;;;;16.35;5.05;;;;;;;19.06;49.02;101706.56;5196320;28;20430;-43
2022/04/13 10:01:07;;;;;;;19.65;5.38;;;;;;;19.04;48.93;101715.78;5189353;28;20446;-46
2022/04/13 10:03:55;;;;;;;16.63;5.10;;;;;;;18.96;49.10;101719.41;5194424;28;20487;-47
2022/04/13 10:06:30;;;;;;;16.95;4.47;;;;;;;18.52;49.09;101639.00;5199465;28;20422;-43
2022/04/13 10:09:08;;;;;;;17.35;5.10;;;;;;;18.98;49.33;101725.38;5195258;28;20423;-44
2022/04/13 10:11:58;;;;;;;12.07;5.22;;;;;;;19.05;48.89;101733.53;5195948;28;20474;-48
2022/04/13 10:14:32;;;;;;;17.73;5.35;;;;;;;19.02;49.08;101734.72;5193096;28;20435;-43
2022/04/13 10:17:41;;;;;;;16.10;4.80;;;;;;;19.12;48.96;101735.28;5200285;28;20521;-45
2022/04/13 10:20:14;;;;;;;13.98;5.22;;;;;;;19.13;48.89;101715.50;5196594;28;20490;-49
2022/04/13 10:23:01;;;;;;;14.57;4.15;;;;;;;19.16;48.92;101724.19;5195840;28;20500;-46
2022/04/13 10:25:34;;;;;;;17.42;5.32;;;;;;;18.94;49.10;101726.75;5191780;28;20453;-44
2022/04/13 10:28:07;;;;;;;16.50;4.22;;;;;;;19.03;49.09;101752.44;5194880;28;20923;-44
2022/04/13 10:30:42;;;;;;;16.40;4.30;;;;;;;19.03;49.09;101743.56;5195191;28;20912;-46
2022/04/13 10:33:15;;;;;;;15.50;4.67;;;;;;;19.08;48.77;101741.19;5200050;28;20824;-45
2022/04/13 10:35:48;;;;;;;13.23;4.35;;;;;;;19.09;48.91;101761.59;5194431;28;20414;-45
2022/04/13 10:38:22;;;;;;;13.83;3.80;;;;;;;19.06;48.96;101756.59;5202174;28;20439;-44
2022/04/13 10:40:55;;;;;;;18.40;3.83;;;;;;;19.03;49.01;101752.44;5193506;28;20895;-47
2022/04/13 10:43:29;;;;;;;19.88;3.97;;;;;;;18.95;49.00;101749.00;5195959;28;20457;-43
2022/04/13 10:46:02;;;;;;;16.42;4.38;;;;;;;18.71;49.13;101713.44;5183023;28;20427;-44
2022/04/13 10:48:39;;;;;;;14.55;3.80;;;;;;;18.91;49.04;101747.72;5191252;28;20422;-44
2022/04/13 10:51:14;;;;;;;11.35;3.75;;;;;;;18.79;48.91;101758.03;5192638;28;20403;-44
2022/04/13 10:54:00;;;;;;;14.40;3.58;;;;;;;18.78;49.12;101765.22;5193035;28;20406;-44
2022/04/13 10:56:34;;;;;;;17.45;4.22;;;;;;;18.65;49.33;101751.59;5189221;28;20477;-43
2022/04/13 10:59:16;;;;;;;14.63;3.88;;;;;;;18.60;49.17;101751.31;5193709;28;20818;-47
2022/04/13 11:02:04;;;;;;;15.63;3.55;;;;;;;18.73;49.23;101767.59;5191296;28;20431;-44
2022/04/13 11:04:37;;;;;;;20.00;5.43;;;;;;;18.79;49.18;101768.72;5191341;28;21006;-44
2022/04/13 11:07:10;;;;;;;18.73;6.38;;;;;;;18.82;48.78;101774.53;5201006;28;20428;-47
2022/04/13 11:09:45;;;;;;;14.88;4.72;;;;;;;18.88;49.07;101775.66;5193998;28;20441;-46
2022/04/13 11:12:18;;;;;;;15.05;5.20;;;;;;;18.96;48.95;101766.75;5193073;28;20562;-48
2022/04/13 11:14:53;;;;;;;15.82;5.18;;;;;;;19.04;49.14;101769.31;5192067;28;20410;-47
2022/04/13 11:17:27;;;;;;;16.52;4.43;;;;;;;19.10;49.04;101758.72;5190927;28;20433;-42
2022/04/13 11:20:21;;;;;;;14.23;4.20;;;;;;;19.23;48.86;101758.09;5186614;28;20422;-48
2022/04/13 11:23:13;;;;;;;10.05;3.45;;;;;;;19.40;49.01;101763.25;5192375;28;20419;-49
2022/04/13 11:25:54;;;;;;;15.00;4.38;;;;;;;19.43;48.94;101768.25;5186610;28;20445;-48
2022/04/13 11:28:30;;;;;;;16.27;4.13;;;;;;;19.45;48.90;101755.47;5188232;28;20538;-43
2022/04/13 11:31:04;;;;;;;14.48;3.42;;;;;;;19.65;48.59;101783.41;5182684;28;20434;-48
2022/04/13 11:33:53;;;;;;;11.35;4.07;;;;;;;19.59;48.75;101758.16;5178815;28;20417;-49
2022/04/13 11:36:31;;;;;;;14.77;4.65;;;;;;;19.84;48.45;101767.75;5175950;28;20479;-48
2022/04/13 11:39:03;;;;;;;17.88;4.10;;;;;;;20.00;48.24;101775.56;5185656;28;20423;-48
2022/04/13 11:41:37;;;;;;;10.38;3.25;;;;;;;19.98;48.13;101767.72;5191188;28;20447;-45
2022/04/13 11:44:19;;;;;;;13.77;4.57;;;;;;;20.15;47.96;101779.03;5184790;28;20446;-46
2022/04/13 11:47:11;;;;;;;14.35;3.58;;;;;;;20.24;47.90;101783.25;5184836;28;20480;-46
2022/04/13 11:49:56;;;;;;;10.27;2.78;;;;;;;20.13;47.76;101742.69;5184754;28;20470;-46
2022/04/13 11:52:48;;;;;;;10.98;3.50;;;;;;;20.53;47.33;101778.81;5187980;28;20916;-47
2022/04/13 11:55:22;;;;;;;12.18;3.33;;;;;;;20.79;46.98;101797.03;5173698;28;20480;-48